الصفحة الرئيسية
METAR-TAF:

METAR-TAF

مطار :

مطار تونس قرطاج الدولي

تونس, تونس

دائرة عرض: 36-50N, خط طول: 010-14E, ارتفاع: 3 متر

مراقبة الطقس الحالي

تاريخ ووقت الإصدار 36 دقيقة قبل الساعة 00:30UTC
ريح 5 عقدة من الشرق/الجنوب الشرقي, الاتجاه يتراوح بين الشرق و الجنوب/الجنوب الشرقي
درجة الحرارة 21°درجة مئوية
الرطوبة 83%
ضغط 1014 hPa
الرؤية 10 كم أو أكثر
غيوم متفرقة على ارتفاع 2300 قدم
غيوم قليلة على ارتفاع 3000 قدم, مزنة ركامية.

METAR: DTTA 170030Z 12005KT 090V160 9999 SCT023 FEW030CB 21/18 Q1014 RETS NOSIG

زمن: 02:06 (01:06 UTC)

توقعات

تاريخ ووقت الإصدار 2ساعات و 6 دقيقة قبل الساعة 23:00UTC
التوقعات صالحة من17 الساعة 00 UTC إلى 17 الساعة 24 UTC
ريح 5 عقدة من الجنوب
الرؤية 10 كم أو أكثر
غيوم متفرقة على ارتفاع 3300 قدم
أصبح
بين و UTC
مؤقت
من 17 الساعة 02 UTC إلى 17 الساعة 15 UTC
ريح 27 عقدة من الشرق تتزايد حتى 37 عقدة
الرؤية: 3000 متر
غيوم متفرقة على ارتفاع 2300 قدم, مزنة ركامية.
عاصفة رعدية, زخات من المطر الغزيرة

TAF: DTTA 162300Z 1700/1724 19005KT 9999 SCT033 BECMG TEMPO 1702/1715 10027G37KT 3000 TS +SHRA SCT023CB

أرصاد الطقس والتوقعات من أكثر من 4000 مطار (تقارير الطقس للمطار METAR والتنبؤ بالطقس بالمطارTAF).

المحطات المتاحة هي النقط الصفراء والحمراء على الخريطة.

حرك المؤشر فوق النقطة لمعرفة اسم المحطة.

ثم انقر لمعرفة أرصاد وتوقعات الطقس.

لتغيير الخارطة: اضغط على الأزرار الخضراء مع رمز الصليب الأسود للتكبير. على الزر الأخضر مع شرطة للتصغير، أو على الأسهم الخضراء للخرائط المجاورة.


METAR-TAF: